Relevés horaires Matro (Suisse)


Relevés horaires à Matro - Jeudi 20 Août 2026
Heure UTC1 Température [°C] Vent [km/h] Hum. [%] Pres.4 [hPa] Visi. [Km] Nébu. [octa] Préc.5 [mm] Cond.
2m. Res. Ros. Dir.2 Vit. Moy. Raf.3
23:00 9.0 7.2 7.9 SE 11.1 -- 27.8 93 850(-0.1/3h) -- -- -- --
22:00 9.4 6.4 7.7 SSE 22.2 -- 42.6 89 850 -- -- -- --
21:00 8.8 4.7 8.3 SSE 35.2 -- 55.6 97 850 -- -- -- --
20:00 8.9 4.1 8.6 SE 48.2 -- 55.6 98 850 -- -- -- --
19:00 9.2 5.4 9.1 SE 31.5 -- 37.0 99 850 -- -- -- --
18:00 10.0 7.2 9.4 ESE 22.2 -- 59.3 96 850 -- -- -- --
17:00 10.5 6.7 10.0 SSE 38.9 -- 44.4 97 850(-0.8/3h) -- -- -- --
16:00 10.8 7.1 9.0 SE 38.9 -- 59.3 89 850(-1.0/3h) -- -- -- --
15:00 11.2 8 11.2 SE 31.5 -- 40.7 100 850(-0.9/3h) -- -- -- --
14:00 11.8 10.4 11.0 ESE 13.0 -- 22.2 95 850(-0.1/3h) -- -- -- --
13:00 11.4 10.8 10.4 E 7.4 -- 16.7 94 850(0.1/3h) -- -- -- --
12:00 11.1 10.1 10.3 SO 9.3 -- 51.9 95 850(0.3/3h) -- -- -- --
11:00 11.2 8.2 11.0 SSE 29.6 -- 51.9 99 850 -- -- -- --
10:00 11.3 8.7 10.2 ESE 24.1 -- 33.3 93 850(0.1/3h) -- -- -- --
09:00 12.0 10.6 10.4 SE 13.0 -- 44.4 90 850 -- -- -- --
08:00 12.5 10.7 12.5 SSE 18.5 -- 29.6 100 850 -- -- -- --
07:00 12.0 10 12.0 SE 18.5 -- 35.2 100 850 -- -- -- --
06:00 11.9 9.4 11.9 SE 24.1 -- 44.4 100 850 -- -- -- --
05:00 12.4 10 10.2 SSE 25.9 -- 31.5 86 850(-0.5/3h) -- -- -- --
04:00 11.8 10.2 11.4 SSE 14.8 -- 33.3 97 850(-0.2/3h) -- -- -- --
03:00 12.4 10.1 11.1 SSE 24.1 -- 44.4 92 850(-0.3/3h) -- -- -- --
02:00 12.2 9.7 11.5 SSE 25.9 -- 42.6 95 850(-0.3/3h) -- -- -- --
01:00 12.5 10.4 12.5 SE 22.2 -- 44.4 100 850(-0.2/3h) -- -- -- --
00:00 12.3 9.7 11.7 SSE 27.8 -- 40.7 96 850(0.0/3h) -- -- -- --

1 Coordinated Universal Time. Actuellement il est 08:00 locale et 06:00 UTC.

2 Le vent souffle depuis la direction indiquée vers la direction oposée.

3 Les rafales max. sont disponible 40 min après l'heure du relevé.

4 Pour les stations d'altitude (plus de 600m) le géopotentiel du niveau le plus proche de la pression obligatoire est indiqué.

5 Les stations disposant d'un diffuseur peuvent indiquer "trace". Cela signifie que des précipitations ont touchés le sol mais que la quantité est inférieure à 0.1 mm.

Copyright

Les données affichées sur cette page sont la propriété exclusive de Météo Suisse.

Récapitulatif de la journée
Température [°C] Vent [km/h] Ensoleillement4 [h] Precipitations totale5 [mm] Pression [Hpa]
Min1 Max.2 Moy.3 Max. Min Max.
11.3 12.5 0 59.3 0 h 12 min 0 850.0 850.0

1 Température minimale relevée entre 18:00 UTC la veille et 18:00 UTC le jour donné.

2 Température maximale relevée entre 06:00 UTC le jour donné et 06:00 UTC le lendemain.

3 Vent moyen de la journée basé sur les relevés horaires.

4 Ensoleillement en heures relevé entre 06:00 UTC la veille et 06:00 UTC le jour donné.

5 Précipitations totales tombées entre 06:00 UTC la jour donné et 06:00 UTC le lendemain.

Graphiques horaires